Time;durP1;ratioP1;P1;durP2;ratioP2;P2;SDS_P1;SDS_P2;PMS_P1;PMS_P2;Temp;Humidity;BMP_temperature;BMP_pressure;BME280_temperature;BME280_humidity;BME280_pressure;Samples;Min_cycle;Max_cycle;Signal;HPM_P1;HPM_P2
2021/11/01 00:02:00;;;;;;;13.63;8.37;;;11.00;99.50;10.90;99283.00;;;;4938041;28;87885;-67
2021/11/01 00:04:26;;;;;;;11.33;7.27;;;10.90;99.70;10.90;99286.00;;;;4938471;28;87798;-68
2021/11/01 00:06:52;;;;;;;15.80;9.43;;;11.00;99.90;10.90;99270.00;;;;4951941;28;87964;-67
2021/11/01 00:09:17;;;;;;;12.33;8.27;;;10.90;99.90;10.90;99279.00;;;;4937009;28;108950;-68
2021/11/01 00:11:43;;;;;;;14.23;9.33;;;10.90;99.90;10.80;99271.00;;;;4938109;28;109995;-67
2021/11/01 00:14:09;;;;;;;15.20;8.77;;;10.80;99.90;10.80;99262.00;;;;4937492;28;87828;-67
2021/11/01 00:16:35;;;;;;;11.57;7.73;;;10.80;99.90;10.70;99274.00;;;;4937190;28;116620;-66
2021/11/01 00:19:00;;;;;;;13.80;8.57;;;10.80;99.90;10.70;99260.00;;;;4936866;28;107604;-68
2021/11/01 00:21:26;;;;;;;14.70;8.47;;;10.70;99.90;10.70;99265.00;;;;4937173;28;110636;-68
2021/11/01 00:23:52;;;;;;;14.77;9.03;;;10.70;99.90;10.70;99258.00;;;;4937846;28;108992;-68
2021/11/01 00:26:19;;;;;;;12.00;8.90;;;10.70;99.90;10.60;99249.00;;;;4938302;28;88313;-67
2021/11/01 00:28:45;;;;;;;15.80;9.77;;;10.60;99.90;10.60;99248.00;;;;4937054;28;89083;-68
2021/11/01 00:31:12;;;;;;;15.87;9.53;;;10.60;99.90;10.50;99238.00;;;;4937841;28;110577;-69
2021/11/01 00:33:38;;;;;;;18.20;9.27;;;10.60;99.90;10.50;99244.00;;;;4935968;28;104649;-67
2021/11/01 00:36:04;;;;;;;15.60;9.70;;;10.60;99.90;10.50;99235.00;;;;4938138;28;90471;-66
2021/11/01 00:38:30;;;;;;;9.87;7.87;;;10.50;99.90;10.50;99234.00;;;;4952088;28;87673;-67
2021/11/01 00:40:56;;;;;;;14.00;9.47;;;10.50;99.90;10.50;99227.00;;;;4931460;28;110744;-66
2021/11/01 00:43:22;;;;;;;12.97;8.13;;;10.60;99.90;10.50;99237.00;;;;4937256;28;88866;-67
2021/11/01 00:45:48;;;;;;;15.77;10.20;;;10.50;99.90;10.50;99238.00;;;;4937034;28;92667;-67
2021/11/01 00:48:14;;;;;;;14.33;9.03;;;10.50;99.90;10.50;99240.00;;;;4936271;28;105712;-67
2021/11/01 00:50:40;;;;;;;12.50;8.57;;;10.50;99.90;10.50;99245.00;;;;4937453;28;87775;-67
2021/11/01 00:53:06;;;;;;;10.23;7.87;;;10.50;99.90;10.50;99243.00;;;;4937422;28;87738;-67
2021/11/01 00:55:36;;;;;;;17.00;9.47;;;10.50;99.90;10.50;99237.00;;;;4937357;28;89045;-67
2021/11/01 00:58:04;;;;;;;15.50;9.27;;;10.50;99.90;10.50;99233.00;;;;4937869;28;88030;-68
2021/11/01 01:00:30;;;;;;;13.57;8.43;;;10.50;99.90;10.40;99228.00;;;;4937232;28;87069;-68
2021/11/01 01:02:57;;;;;;;15.57;8.13;;;10.40;99.90;10.40;99230.00;;;;4938132;28;87715;-67
2021/11/01 01:05:23;;;;;;;15.60;9.37;;;10.50;99.90;10.40;99227.00;;;;4936757;28;87737;-67
2021/11/01 01:07:49;;;;;;;11.83;7.80;;;10.40;99.90;10.40;99223.00;;;;4951681;28;88710;-67
2021/11/01 01:10:14;;;;;;;15.43;9.30;;;10.40;99.90;10.40;99225.00;;;;4936714;28;110469;-68
2021/11/01 01:12:43;;;;;;;12.00;8.17;;;10.40;99.90;10.40;99215.00;;;;4935813;28;109395;-67
2021/11/01 01:15:15;;;;;;;12.80;9.50;;;10.40;99.90;10.30;99217.00;;;;4937043;28;89024;-68
2021/11/01 01:17:42;;;;;;;10.63;8.13;;;10.30;99.90;10.20;99213.00;;;;4951297;28;87755;-69
2021/11/01 01:20:12;;;;;;;12.23;8.17;;;10.30;99.90;10.20;99208.00;;;;4917479;28;87932;-66
2021/11/01 01:22:40;;;;;;;13.03;8.47;;;10.20;99.90;10.20;99208.00;;;;4918138;28;87711;-66
2021/11/01 01:25:25;;;;;;;12.47;8.57;;;10.40;99.90;10.10;99209.00;;;;4922285;28;88169;-67
2021/11/01 01:28:01;;;;;;;13.90;9.23;;;10.20;99.90;10.00;99201.00;;;;4948002;28;87906;-66
2021/11/01 01:30:28;;;;;;;12.30;8.60;;;10.10;99.90;10.00;99197.00;;;;4936508;28;109611;-66
2021/11/01 01:32:53;;;;;;;11.53;8.23;;;10.00;99.90;9.90;99195.00;;;;4936306;28;88761;-66
2021/11/01 01:35:20;;;;;;;11.47;8.40;;;10.00;99.90;9.90;99187.00;;;;4935508;28;118182;-66
2021/11/01 01:37:46;;;;;;;14.50;9.50;;;9.90;99.90;9.90;99192.00;;;;4935333;28;117548;-67
2021/11/01 01:40:15;;;;;;;11.80;8.03;;;9.90;99.90;9.80;99191.00;;;;4951028;28;88083;-66
2021/11/01 01:42:41;;;;;;;11.07;8.07;;;9.90;99.90;9.80;99183.00;;;;4937216;28;87665;-66
2021/11/01 01:45:10;;;;;;;15.20;9.00;;;9.80;99.90;9.80;99179.00;;;;4935539;28;99127;-69
2021/11/01 01:47:36;;;;;;;13.90;8.63;;;9.80;99.90;9.70;99192.00;;;;4936430;28;87803;-69
2021/11/01 01:50:04;;;;;;;11.60;7.93;;;9.80;99.90;9.70;99185.00;;;;4936660;28;86671;-68
2021/11/01 01:52:30;;;;;;;12.60;8.57;;;9.70;99.90;9.70;99175.00;;;;4936506;28;87939;-67
2021/11/01 01:54:57;;;;;;;18.67;9.93;;;9.70;99.90;9.60;99182.00;;;;4936712;28;88118;-67
2021/11/01 01:57:23;;;;;;;11.13;8.23;;;9.70;99.90;9.60;99175.00;;;;4935728;28;96053;-68
2021/11/01 01:59:49;;;;;;;14.40;9.13;;;9.70;99.90;9.60;99175.00;;;;4936345;28;88061;-67
2021/11/01 02:02:15;;;;;;;12.63;8.27;;;9.70;99.90;9.60;99166.00;;;;4937376;28;87854;-68
2021/11/01 02:04:42;;;;;;;13.87;8.30;;;9.70;99.90;9.70;99168.00;;;;4935208;28;117099;-68
2021/11/01 02:07:17;;;;;;;14.83;8.67;;;9.70;99.90;9.60;99170.00;;;;4950561;28;88340;-67
2021/11/01 02:10:08;;;;;;;14.43;8.43;;;9.60;99.90;9.60;99163.00;;;;4935851;28;88554;-68
2021/11/01 02:12:59;;;;;;;14.53;8.90;;;9.70;99.90;9.60;99168.00;;;;4933839;28;93582;-66
2021/11/01 02:15:44;;;;;;;14.70;8.97;;;9.70;99.90;9.60;99169.00;;;;4951186;28;87171;-67
2021/11/01 02:18:11;;;;;;;14.10;9.47;;;10.10;99.90;9.70;99170.00;;;;4951244;28;88048;-66
2021/11/01 02:20:37;;;;;;;10.57;8.10;;;9.70;99.90;9.70;99176.00;;;;4936564;28;87620;-66
2021/11/01 02:23:46;;;;;;;15.00;9.23;;;9.70;99.90;9.70;99161.00;;;;4936503;28;88964;-69
2021/11/01 02:26:14;;;;;;;12.13;8.97;;;9.70;99.90;9.70;99164.00;;;;4915413;28;88119;-67
2021/11/01 02:28:41;;;;;;;12.13;8.80;;;9.80;99.90;9.80;99166.00;;;;4936209;28;88169;-68
2021/11/01 02:31:11;;;;;;;12.67;9.13;;;9.80;99.90;9.80;99165.00;;;;4936667;28;87933;-66
2021/11/01 02:33:38;;;;;;;12.77;8.40;;;9.80;99.90;9.80;99171.00;;;;4936232;28;87783;-67
2021/11/01 02:36:05;;;;;;;14.60;8.43;;;10.20;99.90;9.80;99162.00;;;;4935683;28;88942;-66
2021/11/01 02:38:31;;;;;;;12.67;7.97;;;9.90;99.90;9.80;99159.00;;;;4935123;28;109600;-66
2021/11/01 02:41:03;;;;;;;11.50;7.70;;;9.80;99.90;9.80;99164.00;;;;4936466;28;96585;-67
2021/11/01 02:43:29;;;;;;;13.93;9.23;;;9.80;99.90;9.80;99155.00;;;;4935523;28;96213;-67
2021/11/01 02:45:58;;;;;;;12.93;7.53;;;9.80;99.90;9.80;99152.00;;;;4935026;28;117262;-67
2021/11/01 02:48:24;;;;;;;15.77;9.03;;;9.80;99.90;9.80;99141.00;;;;4935591;28;98935;-67
2021/11/01 02:50:50;;;;;;;10.23;7.90;;;9.90;99.90;9.80;99149.00;;;;4936372;28;87792;-68
2021/11/01 02:53:15;;;;;;;12.27;7.67;;;9.80;99.90;9.90;99144.00;;;;4939594;28;87900;-67
2021/11/01 02:55:41;;;;;;;13.83;8.90;;;9.90;99.90;9.90;99148.00;;;;4938091;28;116719;-69
2021/11/01 02:58:07;;;;;;;14.53;10.00;;;9.90;99.90;9.90;99140.00;;;;4937695;28;118480;-69
2021/11/01 03:00:34;;;;;;;12.27;8.10;;;9.90;99.90;9.90;99140.00;;;;4952876;28;110075;-66
2021/11/01 03:03:00;;;;;;;16.97;9.40;;;9.90;99.90;9.90;99141.00;;;;4939410;28;87910;-66
2021/11/01 03:05:29;;;;;;;11.87;8.13;;;9.80;99.90;9.90;99139.00;;;;4939667;28;99818;-67
2021/11/01 03:07:57;;;;;;;16.23;9.57;;;9.90;99.90;9.90;99138.00;;;;4937357;28;89545;-67
2021/11/01 03:10:25;;;;;;;24.07;8.50;;;9.90;99.90;9.90;99139.00;;;;4953763;28;95556;-67
2021/11/01 03:12:53;;;;;;;15.13;9.50;;;9.90;99.90;9.90;99143.00;;;;4938441;28;88761;-66
2021/11/01 03:15:21;;;;;;;15.43;9.30;;;9.90;99.90;9.90;99145.00;;;;4937848;28;88954;-67
2021/11/01 03:17:53;;;;;;;14.30;8.33;;;9.90;99.90;9.90;99139.00;;;;4936548;28;90433;-67
2021/11/01 03:20:27;;;;;;;15.87;8.80;;;9.90;99.90;9.90;99141.00;;;;4953763;28;87902;-68
2021/11/01 03:23:08;;;;;;;13.70;8.07;;;9.90;99.90;9.90;99143.00;;;;4939180;28;87687;-65
2021/11/01 03:25:42;;;;;;;11.90;8.70;;;9.90;99.90;9.90;99142.00;;;;4953247;28;88232;-66
2021/11/01 03:28:10;;;;;;;16.53;9.73;;;9.90;99.90;9.80;99137.00;;;;4936804;28;87854;-67
2021/11/01 03:30:39;;;;;;;13.27;7.87;;;9.90;99.90;9.80;99138.00;;;;4920751;28;89458;-67
2021/11/01 03:33:05;;;;;;;10.37;8.47;;;9.80;99.90;9.80;99137.00;;;;4952983;28;87583;-67
2021/11/01 03:35:33;;;;;;;14.77;9.73;;;9.80;99.90;9.80;99133.00;;;;4938352;28;88004;-68
2021/11/01 03:38:02;;;;;;;13.23;8.53;;;9.90;99.90;9.80;99139.00;;;;4952915;28;88520;-67
2021/11/01 03:40:33;;;;;;;10.67;7.33;;;9.80;99.90;9.80;99137.00;;;;4938685;28;87732;-67
2021/11/01 03:43:01;;;;;;;11.43;8.30;;;9.80;99.90;9.80;99147.00;;;;4952582;28;87735;-66
2021/11/01 03:45:27;;;;;;;10.63;7.80;;;9.80;99.90;9.90;99147.00;;;;4952525;28;89099;-67
2021/11/01 03:48:00;;;;;;;10.80;7.33;;;9.90;99.90;9.90;99139.00;;;;4953459;28;88086;-67
2021/11/01 03:50:33;;;;;;;13.70;9.07;;;9.90;99.90;9.90;99151.00;;;;4952134;28;87716;-66
2021/11/01 03:52:59;;;;;;;13.40;8.47;;;9.90;99.90;9.90;99142.00;;;;4938645;28;87898;-68
2021/11/01 03:55:29;;;;;;;16.47;10.07;;;9.80;99.90;9.90;99139.00;;;;4938054;28;88195;-67
2021/11/01 03:57:57;;;;;;;14.63;8.90;;;9.80;99.90;9.90;99139.00;;;;4951993;28;88188;-67
2021/11/01 04:00:26;;;;;;;13.13;8.03;;;9.80;99.90;9.90;99142.00;;;;4938604;28;87902;-67
2021/11/01 04:02:54;;;;;;;11.20;7.80;;;9.90;99.90;9.90;99147.00;;;;4937432;28;88686;-67
2021/11/01 04:05:19;;;;;;;13.27;8.17;;;9.90;99.90;9.90;99145.00;;;;4936330;28;89265;-66
2021/11/01 04:07:46;;;;;;;15.50;9.67;;;9.90;99.90;9.90;99160.00;;;;4938297;28;87782;-66
2021/11/01 04:10:12;;;;;;;13.80;8.27;;;9.90;99.90;10.00;99151.00;;;;4938910;28;87791;-67
2021/11/01 04:12:41;;;;;;;13.23;8.97;;;10.20;99.90;10.00;99154.00;;;;4938406;28;87944;-66
2021/11/01 04:15:11;;;;;;;15.67;9.97;;;10.00;99.90;10.00;99149.00;;;;4938088;28;88302;-66
2021/11/01 04:20:51;;;;;;;12.73;8.60;;;10.00;99.90;9.90;99142.00;;;;4928763;28;87060;-68
2021/11/01 04:23:18;;;;;;;14.43;8.87;;;10.00;99.90;9.90;99139.00;;;;4936502;28;87941;-66
2021/11/01 04:25:44;;;;;;;12.63;7.97;;;10.00;99.90;9.90;99148.00;;;;4938330;28;88894;-67
2021/11/01 04:28:09;;;;;;;18.13;8.53;;;9.90;99.90;9.90;99140.00;;;;4936165;28;116974;-66
2021/11/01 04:30:40;;;;;;;13.37;8.90;;;9.90;99.90;9.90;99145.00;;;;4937054;28;110239;-67
2021/11/01 04:33:11;;;;;;;18.40;9.73;;;10.00;99.90;10.00;99145.00;;;;4937987;28;87773;-67
2021/11/01 04:35:38;;;;;;;14.67;8.70;;;9.40;99.90;10.00;99146.00;;;;4937086;28;88852;-67
2021/11/01 04:38:17;;;;;;;11.53;7.40;;;10.00;99.90;10.10;99157.00;;;;4937687;28;88644;-68
2021/11/01 04:52:57;;;;;;;14.67;9.13;;;10.20;99.90;10.20;99154.00;;;;4935036;28;87721;-67
2021/11/01 04:54:50;;;;;;;13.73;8.03;;;10.20;99.90;10.30;99155.00;;;;4920229;28;88949;-67
2021/11/01 04:57:19;;;;;;;14.13;8.93;;;10.30;99.90;10.30;99163.00;;;;4936929;28;88639;-67
2021/11/01 04:59:45;;;;;;;12.93;9.10;;;10.30;99.90;10.30;99145.00;;;;4937160;28;87828;-67
2021/11/01 05:02:11;;;;;;;13.13;9.13;;;10.30;99.90;10.30;99147.00;;;;4937492;28;87871;-68
2021/11/01 05:04:37;;;;;;;10.90;8.07;;;10.30;99.90;10.30;99154.00;;;;4937513;28;87760;-67
2021/11/01 05:07:05;;;;;;;10.37;8.37;;;10.30;99.90;10.30;99152.00;;;;4936443;28;88011;-67
2021/11/01 05:09:40;;;;;;;15.67;10.40;;;10.40;99.90;10.40;99161.00;;;;4937419;28;87819;-68
2021/11/01 05:12:19;;;;;;;16.77;9.97;;;10.30;99.90;10.40;99164.00;;;;4936768;28;87917;-68
2021/11/01 05:20:08;;;;;;;16.53;10.00;;;10.40;99.90;10.40;99160.00;;;;4933297;28;88756;-69
2021/11/01 05:25:37;;;;;;;15.97;10.30;;;10.40;99.90;10.40;99153.00;;;;4897510;28;87975;-66
2021/11/01 05:30:36;;;;;;;10.40;7.90;;;10.40;99.90;10.40;99169.00;;;;4934295;28;87847;-68
2021/11/01 05:33:19;;;;;;;12.90;9.77;;;10.40;99.90;10.30;99165.00;;;;4936457;28;88024;-66
2021/11/01 05:35:45;;;;;;;15.50;9.57;;;10.30;99.90;10.30;99165.00;;;;4937024;28;87881;-67
2021/11/01 05:38:10;;;;;;;13.20;9.33;;;10.30;99.90;10.30;99173.00;;;;4937144;28;88126;-66
2021/11/01 05:40:37;;;;;;;14.10;9.37;;;10.30;99.90;10.30;99172.00;;;;4935146;28;115210;-68
2021/11/01 05:43:04;;;;;;;13.87;8.50;;;10.20;99.90;10.20;99175.00;;;;4936771;28;87984;-67
2021/11/01 05:45:30;;;;;;;14.20;9.13;;;10.30;99.90;10.20;99165.00;;;;4936418;28;88843;-66
2021/11/01 05:48:01;;;;;;;14.93;9.43;;;10.20;99.90;10.20;99173.00;;;;4935428;28;118046;-66
2021/11/01 05:50:30;;;;;;;11.73;8.90;;;10.10;99.90;10.20;99180.00;;;;4936564;28;87942;-68
2021/11/01 05:52:59;;;;;;;13.47;9.00;;;10.20;99.90;10.10;99190.00;;;;4932736;28;87882;-67
2021/11/01 05:58:06;;;;;;;13.97;9.67;;;10.10;99.90;10.10;99185.00;;;;4946132;28;87932;-68
2021/11/01 06:00:53;;;;;;;14.20;9.77;;;10.10;99.90;10.10;99196.00;;;;4931154;28;88019;-66
2021/11/01 06:03:27;;;;;;;16.23;9.20;;;10.10;99.90;10.00;99197.00;;;;4939850;28;86917;-66
2021/11/01 06:06:21;;;;;;;14.07;8.40;;;10.00;99.90;10.00;99190.00;;;;4932537;28;87851;-67
2021/11/01 06:14:16;;;;;;;16.93;10.00;;;10.00;99.90;10.00;99197.00;;;;4929914;28;87886;-67
2021/11/01 06:16:41;;;;;;;17.57;9.83;;;10.00;99.90;10.00;99191.00;;;;4930750;28;108121;-68
2021/11/01 06:19:07;;;;;;;14.77;9.10;;;10.00;99.90;10.10;99199.00;;;;4931242;28;117418;-67
2021/11/01 06:21:34;;;;;;;13.50;8.70;;;10.10;99.90;10.10;99207.00;;;;4934758;28;88318;-67
2021/11/01 06:24:05;;;;;;;16.63;10.23;;;10.10;99.90;10.20;99207.00;;;;4936766;28;87700;-69
2021/11/01 06:26:31;;;;;;;17.97;9.37;;;10.10;99.90;10.20;99215.00;;;;4948799;28;87703;-67
2021/11/01 06:29:03;;;;;;;15.37;10.77;;;10.20;99.90;10.30;99217.00;;;;4936437;28;86926;-67
2021/11/01 06:31:32;;;;;;;12.43;8.93;;;10.30;99.90;10.50;99210.00;;;;4935309;28;87776;-67
2021/11/01 06:34:18;;;;;;;14.03;9.10;;;10.40;99.90;10.60;99227.00;;;;4935906;28;87904;-67
2021/11/01 06:39:50;;;;;;;13.80;9.70;;;10.70;99.90;11.00;99241.00;;;;4922517;28;88085;-67
2021/11/01 06:42:29;;;;;;;16.90;9.10;;;10.90;99.90;11.20;99243.00;;;;4934973;28;88875;-67
2021/11/01 07:16:43;;;;;;;15.17;9.30;;;11.70;99.90;11.80;99279.00;;;;4933367;28;88036;-68
2021/11/01 07:19:19;;;;;;;12.73;8.90;;;11.80;99.90;11.90;99269.00;;;;4936502;28;87744;-67
2021/11/01 07:21:57;;;;;;;13.23;9.13;;;11.80;99.90;11.90;99269.00;;;;4935701;28;87068;-67
2021/11/01 07:24:52;;;;;;;12.60;9.00;;;11.80;99.90;12.00;99277.00;;;;4934938;28;87762;-68
2021/11/01 07:30:32;;;;;;;12.63;8.37;;;12.10;99.90;12.30;99289.00;;;;4931661;28;88745;-68
2021/11/01 08:17:27;;;;;;;14.50;8.30;;;12.40;99.90;12.40;99330.00;;;;4937425;28;87652;-66
2021/11/01 08:22:43;;;;;;;12.87;8.57;;;12.80;99.90;12.90;99369.00;;;;4919209;28;87815;-67
2021/11/01 08:28:02;;;;;;;11.13;8.00;;;12.90;99.90;12.90;99378.00;;;;4935782;28;112020;-67
2021/11/01 08:38:43;;;;;;;13.07;8.70;;;13.00;99.90;13.00;99400.00;;;;4937379;28;88083;-65
2021/11/01 09:05:37;;;;;;;10.40;7.50;;;12.90;99.90;12.90;99430.00;;;;4933705;28;103971;-68
2021/11/01 09:22:42;;;;;;;21.67;8.80;;;12.70;99.90;12.80;99420.00;;;;4934183;28;87989;-67
2021/11/01 09:27:02;;;;;;;16.67;8.77;;;12.80;99.90;13.00;99420.00;;;;4934040;28;104738;-67
2021/11/01 09:29:44;;;;;;;14.90;9.60;;;12.90;99.90;13.10;99421.00;;;;4951695;28;87991;-66
2021/11/01 09:43:07;;;;;;;14.67;10.10;;;13.30;99.90;13.40;99451.00;;;;4930723;28;87967;-68
2021/11/01 09:45:36;;;;;;;15.07;8.33;;;13.30;99.90;13.40;99443.00;;;;4935579;28;88822;-67
2021/11/01 09:48:04;;;;;;;13.57;9.00;;;13.30;99.90;13.40;99449.00;;;;4935653;28;87795;-67
2021/11/01 09:50:31;;;;;;;14.87;9.70;;;13.30;99.90;13.40;99454.00;;;;4937127;28;87810;-67
2021/11/01 09:53:06;;;;;;;12.53;9.40;;;13.30;99.90;13.40;99452.00;;;;4935936;28;87619;-67
2021/11/01 10:00:53;;;;;;;16.63;9.37;;;13.30;99.90;13.40;99448.00;;;;4932125;28;87735;-69
2021/11/01 10:03:50;;;;;;;14.70;9.03;;;13.30;99.90;13.40;99449.00;;;;4950857;28;101732;-68
2021/11/01 10:06:20;;;;;;;14.13;9.10;;;13.30;99.90;13.40;99453.00;;;;4936231;28;87879;-66
2021/11/01 10:08:55;;;;;;;15.00;8.90;;;13.30;99.90;13.50;99450.00;;;;4936599;28;87640;-66
2021/11/01 10:11:30;;;;;;;18.37;12.03;;;13.40;99.90;13.50;99440.00;;;;4936235;28;89026;-66
2021/11/01 10:14:01;;;;;;;15.23;10.47;;;13.40;99.90;13.50;99453.00;;;;4931434;28;89038;-67
2021/11/01 10:19:33;;;;;;;15.57;9.47;;;13.40;99.90;13.60;99445.00;;;;4945185;28;87788;-66
2021/11/01 10:22:05;;;;;;;15.63;10.27;;;14.50;99.90;13.60;99441.00;;;;4916527;28;87607;-67
2021/11/01 10:24:40;;;;;;;13.37;8.63;;;13.50;99.90;13.50;99446.00;;;;4921894;28;88845;-66
2021/11/01 10:27:26;;;;;;;13.67;8.77;;;13.40;99.90;13.50;99441.00;;;;4935573;28;88223;-66
2021/11/01 10:29:51;;;;;;;12.93;8.40;;;13.40;99.90;13.50;99442.00;;;;4933586;28;102584;-67
2021/11/01 10:32:49;;;;;;;14.03;9.17;;;13.40;99.90;13.40;99442.00;;;;4935439;28;88044;-67
2021/11/01 10:35:50;;;;;;;16.10;9.57;;;13.40;99.90;13.40;99444.00;;;;4931321;28;87985;-66
2021/11/01 10:38:24;;;;;;;16.73;10.57;;;13.30;99.90;13.40;99439.00;;;;4929437;28;88609;-66
2021/11/01 11:13:22;;;;;;;19.17;9.40;;;13.60;99.90;13.70;99427.00;;;;4937293;28;94684;-67
2021/11/01 11:15:52;;;;;;;14.30;8.77;;;13.70;99.90;13.80;99415.00;;;;4953564;28;87970;-69
2021/11/01 11:21:20;;;;;;;14.33;8.70;;;13.70;99.90;13.80;99424.00;;;;4936125;28;87901;-67
2021/11/01 11:26:46;;;;;;;11.97;9.00;;;13.70;99.90;13.80;99416.00;;;;4936564;28;87765;-68
2021/11/01 11:29:42;;;;;;;13.83;8.97;;;13.70;99.90;13.70;99429.00;;;;4936188;28;89618;-69
2021/11/01 11:47:30;;;;;;;16.40;10.07;;;13.20;99.90;13.20;99428.00;;;;4915611;28;87905;-68
2021/11/01 11:49:27;;;;;;;18.23;11.20;;;13.20;99.90;13.10;99423.00;;;;4927894;28;88074;-67
2021/11/01 11:52:01;;;;;;;21.53;9.67;;;13.10;99.90;13.10;99427.00;;;;4936101;28;89570;-68
2021/11/01 11:54:32;;;;;;;13.47;9.83;;;13.10;99.90;13.10;99425.00;;;;4938703;28;87651;-68
2021/11/01 11:57:03;;;;;;;13.93;9.17;;;13.10;99.90;13.10;99422.00;;;;4937875;28;88210;-69
2021/11/01 11:59:38;;;;;;;21.20;10.83;;;13.00;99.90;13.10;99420.00;;;;4937899;28;88525;-68
2021/11/01 12:02:09;;;;;;;15.90;9.93;;;13.00;99.90;13.00;99430.00;;;;4952357;28;87825;-68
2021/11/01 12:04:42;;;;;;;18.17;10.20;;;13.00;99.90;13.00;99432.00;;;;4937699;28;87994;-68
2021/11/01 12:07:13;;;;;;;16.37;10.07;;;14.30;99.90;13.00;99429.00;;;;4937731;28;87598;-69
2021/11/01 12:09:57;;;;;;;15.03;10.23;;;12.90;99.90;12.90;99431.00;;;;4937625;28;88763;-68
2021/11/01 12:18:00;;;;;;;16.43;11.80;;;12.90;99.90;12.90;99442.00;;;;4926621;28;87379;-69
2021/11/01 12:20:26;;;;;;;13.67;10.57;;;12.80;99.90;12.80;99429.00;;;;4936663;28;109724;-67
2021/11/01 12:23:03;;;;;;;13.53;11.10;;;12.80;99.90;12.70;99429.00;;;;4936343;28;88763;-68
2021/11/01 12:25:37;;;;;;;17.70;10.87;;;12.80;99.90;12.70;99437.00;;;;4936656;28;88775;-68
2021/11/01 12:28:05;;;;;;;18.37;11.63;;;12.70;99.90;12.60;99432.00;;;;4951623;28;87857;-68
2021/11/01 12:30:43;;;;;;;18.60;12.13;;;12.60;99.90;12.60;99424.00;;;;4951645;28;87909;-68
2021/11/01 12:33:11;;;;;;;17.50;12.47;;;12.60;99.90;12.60;99416.00;;;;4937144;28;88081;-69
2021/11/01 12:35:47;;;;;;;18.13;11.23;;;12.50;99.90;12.50;99414.00;;;;4937384;28;87914;-69
2021/11/01 12:38:19;;;;;;;19.33;13.10;;;12.50;99.90;12.50;99420.00;;;;4936489;28;88131;-69
2021/11/01 12:40:54;;;;;;;18.73;12.97;;;12.50;99.90;12.50;99421.00;;;;4917980;28;87821;-69
2021/11/01 12:57:32;;;;;;;24.17;15.60;;;12.10;99.90;12.00;99420.00;;;;4947198;28;87854;-69
2021/11/01 13:00:00;;;;;;;19.90;13.90;;;12.10;99.90;12.00;99424.00;;;;4935280;28;87633;-70
2021/11/01 13:02:27;;;;;;;21.60;13.70;;;12.00;99.90;12.00;99416.00;;;;4936137;28;87674;-70
2021/11/01 13:04:56;;;;;;;18.60;12.03;;;12.00;99.90;12.00;99422.00;;;;4936454;28;87791;-70
2021/11/01 13:07:56;;;;;;;17.70;12.60;;;12.00;99.90;11.90;99426.00;;;;4936395;28;89074;-70
2021/11/01 13:18:36;;;;;;;20.37;12.93;;;11.80;99.90;11.90;99411.00;;;;4935685;28;88941;-69
2021/11/01 13:21:14;;;;;;;21.17;13.10;;;11.80;99.90;11.90;99409.00;;;;4935666;28;87743;-68
2021/11/01 13:24:03;;;;;;;19.87;13.17;;;11.80;99.90;11.80;99405.00;;;;4936131;28;87730;-68
2021/11/01 13:26:53;;;;;;;20.70;12.47;;;11.80;99.90;11.80;99405.00;;;;4950012;28;88169;-68
2021/11/01 13:34:57;;;;;;;20.17;13.60;;;11.80;99.90;11.80;99398.00;;;;4947130;28;87761;-67
2021/11/01 13:40:18;;;;;;;21.30;13.90;;;11.70;99.90;11.80;99399.00;;;;4933072;28;87680;-68
2021/11/01 13:42:57;;;;;;;20.83;14.23;;;11.70;99.90;11.80;99396.00;;;;4935280;28;88264;-67
2021/11/01 13:45:24;;;;;;;21.20;13.10;;;11.70;99.90;11.80;99392.00;;;;4950386;28;88805;-67
2021/11/01 13:48:08;;;;;;;19.80;14.17;;;11.70;99.90;11.70;99398.00;;;;4950254;28;88512;-67
2021/11/01 13:50:38;;;;;;;22.50;14.87;;;11.70;99.90;11.80;99395.00;;;;4934911;28;116870;-71
2021/11/01 13:53:12;;;;;;;21.07;13.83;;;11.70;99.90;11.80;99391.00;;;;4935651;28;87938;-68
2021/11/01 13:58:33;;;;;;;20.53;14.00;;;11.80;99.90;11.70;99403.00;;;;4949607;28;87898;-68
2021/11/01 14:10:57;;;;;;;21.60;13.87;;;11.70;99.90;11.70;99392.00;;;;4903749;28;87378;-67
2021/11/01 14:12:40;;;;;;;27.27;16.20;;;11.60;99.90;11.70;99395.00;;;;4934584;28;88735;-68
2021/11/01 14:15:13;;;;;;;22.33;14.27;;;11.70;99.90;11.60;99398.00;;;;4948490;28;88068;-67
2021/11/01 14:18:04;;;;;;;19.47;14.27;;;11.60;99.90;11.70;99397.00;;;;4936412;28;88199;-67
2021/11/01 14:31:12;;;;;;;25.83;15.63;;;11.60;99.90;11.60;99393.00;;;;4932103;28;109694;-69
2021/11/01 15:00:47;;;;;;;24.13;15.40;;;11.40;99.90;11.40;99410.00;;;;4935266;28;87794;-66
2021/11/01 15:11:25;;;;;;;21.97;15.43;;;11.40;99.90;11.40;99409.00;;;;4948171;28;87892;-67
2021/11/01 15:24:47;;;;;;;27.03;15.13;;;11.30;99.90;11.20;99426.00;;;;4935808;28;87276;-67
2021/11/01 15:32:53;;;;;;;27.37;15.03;;;11.20;99.90;11.10;99425.00;;;;4936176;28;88781;-67
2021/11/01 15:35:48;;;;;;;26.27;12.30;;;11.20;99.90;11.10;99433.00;;;;4938674;28;87836;-67
2021/11/01 15:38:24;;;;;;;10.23;6.47;;;11.10;99.90;11.10;99433.00;;;;4938140;28;87847;-67
2021/11/01 15:41:28;;;;;;;8.47;5.53;;;11.10;99.90;11.00;99427.00;;;;4938970;28;88065;-66
2021/11/01 16:19:13;;;;;;;7.67;3.93;;;10.60;99.90;10.60;99449.00;;;;4935522;28;86972;-67
2021/11/01 16:21:38;;;;;;;8.97;5.07;;;10.60;99.90;10.60;99439.00;;;;4937526;28;88109;-67
2021/11/01 16:24:05;;;;;;;6.50;4.40;;;10.60;99.90;10.60;99438.00;;;;4937514;28;111133;-67
2021/11/01 16:26:33;;;;;;;9.83;5.10;;;10.60;99.90;10.50;99440.00;;;;4937804;28;88702;-67
2021/11/01 16:29:07;;;;;;;13.03;5.60;;;10.50;99.90;10.40;99436.00;;;;4938121;28;88014;-67
2021/11/01 16:31:43;;;;;;;6.93;5.40;;;10.50;99.90;10.40;99437.00;;;;4937482;28;87735;-67
2021/11/01 16:34:27;;;;;;;8.37;4.73;;;10.40;99.90;10.40;99429.00;;;;4938321;28;88007;-67
2021/11/01 16:37:02;;;;;;;6.33;3.60;;;10.40;99.90;10.30;99438.00;;;;4937683;28;87941;-67
2021/11/01 16:39:50;;;;;;;5.70;2.87;;;10.40;99.90;10.30;99436.00;;;;4937627;28;87910;-67
2021/11/01 16:42:25;;;;;;;3.70;3.03;;;10.30;99.90;10.30;99447.00;;;;4937494;28;87851;-66
2021/11/01 16:44:52;;;;;;;3.23;2.83;;;10.30;99.90;10.20;99435.00;;;;4938288;28;87382;-66
2021/11/01 16:47:18;;;;;;;5.90;4.03;;;10.20;99.90;10.20;99432.00;;;;4937306;28;87957;-66
2021/11/01 16:49:46;;;;;;;7.47;4.50;;;10.20;99.90;10.20;99443.00;;;;4936870;28;89021;-67
2021/11/01 16:52:15;;;;;;;3.17;2.40;;;10.20;99.90;10.20;99453.00;;;;4951648;28;88822;-67
2021/11/01 16:54:54;;;;;;;3.73;2.37;;;10.20;99.90;10.20;99437.00;;;;4938094;28;87813;-68
2021/11/01 16:57:31;;;;;;;2.30;2.10;;;9.90;99.90;10.10;99447.00;;;;4937123;28;88078;-68
2021/11/01 17:00:16;;;;;;;4.87;3.33;;;10.20;99.90;10.10;99450.00;;;;4937769;28;88237;-68
2021/11/01 17:02:50;;;;;;;8.00;4.57;;;10.20;99.90;10.10;99441.00;;;;4936902;28;87900;-68
2021/11/01 17:07:57;;;;;;;4.93;3.13;;;10.10;99.90;10.10;99442.00;;;;4935273;28;100598;-69
2021/11/01 17:11:01;;;;;;;4.47;3.67;;;10.20;99.90;10.10;99439.00;;;;4949782;28;87180;-67
2021/11/01 17:24:25;;;;;;;4.70;3.57;;;10.00;99.90;10.00;99448.00;;;;4933984;28;88045;-68
2021/11/01 17:27:06;;;;;;;5.37;3.23;;;10.00;99.90;10.00;99448.00;;;;4937534;28;87754;-67
2021/11/01 17:35:51;;;;;;;5.77;4.20;;;10.00;99.90;10.00;99465.00;;;;4933612;28;87908;-66
2021/11/01 18:37:43;;;;;;;7.57;4.40;;;9.90;99.90;9.80;99436.00;;;;4935183;28;88021;-65
2021/11/01 18:51:10;;;;;;;8.50;4.67;;;9.80;99.90;9.80;99440.00;;;;4933230;28;87739;-64
2021/11/01 18:53:44;;;;;;;7.53;4.50;;;9.80;99.90;9.80;99443.00;;;;4949381;28;88976;-64
2021/11/01 18:56:12;;;;;;;6.30;4.50;;;9.80;99.90;9.80;99442.00;;;;4936818;28;87654;-64
2021/11/01 18:58:42;;;;;;;6.07;4.80;;;9.80;99.90;9.80;99441.00;;;;4936268;28;87950;-66
2021/11/01 19:01:12;;;;;;;8.10;5.37;;;9.80;99.90;9.80;99434.00;;;;4935518;28;88362;-64
2021/11/01 19:03:46;;;;;;;7.77;4.50;;;9.80;99.90;9.70;99429.00;;;;4935843;28;89280;-65
2021/11/01 19:06:34;;;;;;;9.87;5.30;;;9.80;99.90;9.80;99431.00;;;;4936100;28;87678;-65
2021/11/01 21:27:34;;;;;;;5.37;3.57;;;9.40;99.90;9.40;99388.00;;;;4934973;28;90220;-65